sensor_id;sensor_type;location;lat;lon;timestamp;temperature;humidity
18880;DHT22;9572;52.378;13.404;2022-12-07T00:01:26;3.10;99.90
18880;DHT22;9572;52.378;13.404;2022-12-07T00:03:57;3.10;99.90
18880;DHT22;9572;52.378;13.404;2022-12-07T00:06:30;3.00;99.90
18880;DHT22;9572;52.378;13.404;2022-12-07T00:08:58;3.10;99.90
18880;DHT22;9572;52.378;13.404;2022-12-07T00:11:25;3.10;99.90
18880;DHT22;9572;52.378;13.404;2022-12-07T00:13:53;3.10;99.90
18880;DHT22;9572;52.378;13.404;2022-12-07T00:16:23;3.00;99.90
18880;DHT22;9572;52.378;13.404;2022-12-07T00:18:50;3.00;99.90
18880;DHT22;9572;52.378;13.404;2022-12-07T00:21:20;3.00;99.90
18880;DHT22;9572;52.378;13.404;2022-12-07T00:23:49;3.00;99.90
18880;DHT22;9572;52.378;13.404;2022-12-07T00:26:17;3.00;99.90
18880;DHT22;9572;52.378;13.404;2022-12-07T00:28:46;2.90;99.90
18880;DHT22;9572;52.378;13.404;2022-12-07T00:31:14;2.90;99.90
18880;DHT22;9572;52.378;13.404;2022-12-07T00:33:42;2.90;99.90
18880;DHT22;9572;52.378;13.404;2022-12-07T00:36:11;2.90;99.90
18880;DHT22;9572;52.378;13.404;2022-12-07T00:38:40;2.80;99.90
18880;DHT22;9572;52.378;13.404;2022-12-07T00:41:11;2.80;99.90
18880;DHT22;9572;52.378;13.404;2022-12-07T00:43:39;2.80;99.90
18880;DHT22;9572;52.378;13.404;2022-12-07T00:46:06;2.80;99.90
18880;DHT22;9572;52.378;13.404;2022-12-07T00:48:33;2.80;99.90
18880;DHT22;9572;52.378;13.404;2022-12-07T00:51:01;2.70;99.90
18880;DHT22;9572;52.378;13.404;2022-12-07T00:53:28;2.70;99.90
18880;DHT22;9572;52.378;13.404;2022-12-07T00:55:57;2.60;99.90
18880;DHT22;9572;52.378;13.404;2022-12-07T00:58:24;2.60;99.90
18880;DHT22;9572;52.378;13.404;2022-12-07T01:00:51;2.50;99.90
18880;DHT22;9572;52.378;13.404;2022-12-07T01:03:18;2.40;99.90
18880;DHT22;9572;52.378;13.404;2022-12-07T01:05:52;2.30;99.90
18880;DHT22;9572;52.378;13.404;2022-12-07T01:08:20;2.30;99.90
18880;DHT22;9572;52.378;13.404;2022-12-07T01:10:47;2.40;99.90
18880;DHT22;9572;52.378;13.404;2022-12-07T01:13:16;2.40;99.90
18880;DHT22;9572;52.378;13.404;2022-12-07T01:15:44;2.40;99.90
18880;DHT22;9572;52.378;13.404;2022-12-07T01:18:11;2.40;99.90
18880;DHT22;9572;52.378;13.404;2022-12-07T01:20:38;2.40;99.90
18880;DHT22;9572;52.378;13.404;2022-12-07T01:23:05;2.50;99.90
18880;DHT22;9572;52.378;13.404;2022-12-07T01:25:32;2.50;99.90
18880;DHT22;9572;52.378;13.404;2022-12-07T01:27:59;2.50;99.90
18880;DHT22;9572;52.378;13.404;2022-12-07T01:30:28;2.60;99.90
18880;DHT22;9572;52.378;13.404;2022-12-07T01:32:55;2.50;99.90
18880;DHT22;9572;52.378;13.404;2022-12-07T01:35:22;2.40;99.90
18880;DHT22;9572;52.378;13.404;2022-12-07T01:37:49;2.40;99.90
18880;DHT22;9572;52.378;13.404;2022-12-07T01:40:16;2.40;99.90
18880;DHT22;9572;52.378;13.404;2022-12-07T01:42:43;2.30;99.90
18880;DHT22;9572;52.378;13.404;2022-12-07T01:45:44;2.30;99.90
18880;DHT22;9572;52.378;13.404;2022-12-07T01:48:13;2.20;99.90
18880;DHT22;9572;52.378;13.404;2022-12-07T01:50:41;2.30;99.90
18880;DHT22;9572;52.378;13.404;2022-12-07T01:53:10;2.30;99.90
18880;DHT22;9572;52.378;13.404;2022-12-07T01:55:40;2.30;99.90
18880;DHT22;9572;52.378;13.404;2022-12-07T01:58:09;2.30;99.90
18880;DHT22;9572;52.378;13.404;2022-12-07T02:00:37;2.30;99.90
18880;DHT22;9572;52.378;13.404;2022-12-07T02:03:08;2.20;99.90
18880;DHT22;9572;52.378;13.404;2022-12-07T02:05:37;2.30;99.90
18880;DHT22;9572;52.378;13.404;2022-12-07T02:08:05;2.40;99.90
18880;DHT22;9572;52.378;13.404;2022-12-07T02:10:32;2.30;99.90
18880;DHT22;9572;52.378;13.404;2022-12-07T02:13:02;2.30;99.90
18880;DHT22;9572;52.378;13.404;2022-12-07T02:15:39;2.20;99.90
18880;DHT22;9572;52.378;13.404;2022-12-07T02:18:13;2.20;99.90
18880;DHT22;9572;52.378;13.404;2022-12-07T02:20:49;2.10;99.90
18880;DHT22;9572;52.378;13.404;2022-12-07T02:23:43;2.20;99.90
18880;DHT22;9572;52.378;13.404;2022-12-07T02:26:48;2.10;99.90
18880;DHT22;9572;52.378;13.404;2022-12-07T02:29:25;2.10;99.90
18880;DHT22;9572;52.378;13.404;2022-12-07T02:31:59;2.10;99.90
18880;DHT22;9572;52.378;13.404;2022-12-07T02:34:37;2.10;99.90
18880;DHT22;9572;52.378;13.404;2022-12-07T02:37:12;2.10;99.90
18880;DHT22;9572;52.378;13.404;2022-12-07T02:39:45;2.10;99.90
18880;DHT22;9572;52.378;13.404;2022-12-07T02:42:17;2.10;99.90
18880;DHT22;9572;52.378;13.404;2022-12-07T02:44:45;2.10;99.90
18880;DHT22;9572;52.378;13.404;2022-12-07T02:47:15;2.10;99.90
18880;DHT22;9572;52.378;13.404;2022-12-07T02:49:43;2.10;99.90
18880;DHT22;9572;52.378;13.404;2022-12-07T02:52:10;2.00;99.90
18880;DHT22;9572;52.378;13.404;2022-12-07T02:54:37;2.00;99.90
18880;DHT22;9572;52.378;13.404;2022-12-07T02:57:14;2.00;99.90
18880;DHT22;9572;52.378;13.404;2022-12-07T02:59:54;1.90;99.90
18880;DHT22;9572;52.378;13.404;2022-12-07T03:02:30;2.00;99.90
18880;DHT22;9572;52.378;13.404;2022-12-07T03:05:13;1.90;99.90
18880;DHT22;9572;52.378;13.404;2022-12-07T03:07:50;1.90;99.90
18880;DHT22;9572;52.378;13.404;2022-12-07T03:10:22;1.90;99.90
18880;DHT22;9572;52.378;13.404;2022-12-07T03:13:00;1.80;99.90
18880;DHT22;9572;52.378;13.404;2022-12-07T03:15:33;1.80;99.90
18880;DHT22;9572;52.378;13.404;2022-12-07T03:18:02;1.80;99.90
18880;DHT22;9572;52.378;13.404;2022-12-07T03:20:32;1.90;99.90
18880;DHT22;9572;52.378;13.404;2022-12-07T03:23:03;1.90;99.90
18880;DHT22;9572;52.378;13.404;2022-12-07T03:25:31;1.90;99.90
18880;DHT22;9572;52.378;13.404;2022-12-07T03:28:03;1.90;99.90
18880;DHT22;9572;52.378;13.404;2022-12-07T03:30:35;1.90;99.90
18880;DHT22;9572;52.378;13.404;2022-12-07T03:33:07;1.90;99.90
18880;DHT22;9572;52.378;13.404;2022-12-07T03:35:39;1.80;99.90
18880;DHT22;9572;52.378;13.404;2022-12-07T03:38:13;1.90;99.90
18880;DHT22;9572;52.378;13.404;2022-12-07T03:40:47;1.90;99.90
18880;DHT22;9572;52.378;13.404;2022-12-07T03:43:16;1.90;99.90
18880;DHT22;9572;52.378;13.404;2022-12-07T03:45:55;1.90;99.90
18880;DHT22;9572;52.378;13.404;2022-12-07T03:48:26;1.90;99.90
18880;DHT22;9572;52.378;13.404;2022-12-07T03:51:03;1.80;99.90
18880;DHT22;9572;52.378;13.404;2022-12-07T03:53:37;1.90;99.90
18880;DHT22;9572;52.378;13.404;2022-12-07T03:56:08;1.80;99.90
18880;DHT22;9572;52.378;13.404;2022-12-07T03:58:36;1.80;99.90
18880;DHT22;9572;52.378;13.404;2022-12-07T04:01:05;1.80;99.90
18880;DHT22;9572;52.378;13.404;2022-12-07T04:03:32;1.90;99.90
18880;DHT22;9572;52.378;13.404;2022-12-07T04:05:59;2.00;99.90
18880;DHT22;9572;52.378;13.404;2022-12-07T04:08:26;1.90;99.90
18880;DHT22;9572;52.378;13.404;2022-12-07T04:10:53;2.00;99.90
18880;DHT22;9572;52.378;13.404;2022-12-07T04:13:20;2.10;99.90
18880;DHT22;9572;52.378;13.404;2022-12-07T04:15:47;2.00;99.90
18880;DHT22;9572;52.378;13.404;2022-12-07T04:18:15;2.00;99.90
18880;DHT22;9572;52.378;13.404;2022-12-07T04:20:42;2.00;99.90
18880;DHT22;9572;52.378;13.404;2022-12-07T04:23:09;2.00;99.90
18880;DHT22;9572;52.378;13.404;2022-12-07T04:25:35;1.90;99.90
18880;DHT22;9572;52.378;13.404;2022-12-07T04:28:03;2.00;99.90
18880;DHT22;9572;52.378;13.404;2022-12-07T04:30:29;1.90;99.90
18880;DHT22;9572;52.378;13.404;2022-12-07T04:32:56;1.90;99.90
18880;DHT22;9572;52.378;13.404;2022-12-07T04:35:25;1.90;99.90
18880;DHT22;9572;52.378;13.404;2022-12-07T04:37:51;1.90;99.90
18880;DHT22;9572;52.378;13.404;2022-12-07T04:40:18;1.80;99.90
18880;DHT22;9572;52.378;13.404;2022-12-07T04:42:45;1.80;99.90
18880;DHT22;9572;52.378;13.404;2022-12-07T04:45:12;1.80;99.90
18880;DHT22;9572;52.378;13.404;2022-12-07T04:47:39;1.80;99.90
18880;DHT22;9572;52.378;13.404;2022-12-07T04:50:07;1.80;99.90
18880;DHT22;9572;52.378;13.404;2022-12-07T04:52:35;1.90;99.90
18880;DHT22;9572;52.378;13.404;2022-12-07T04:55:02;1.90;99.90
18880;DHT22;9572;52.378;13.404;2022-12-07T04:57:29;2.00;99.90
18880;DHT22;9572;52.378;13.404;2022-12-07T04:59:56;2.00;99.90
18880;DHT22;9572;52.378;13.404;2022-12-07T05:02:23;2.00;99.90
18880;DHT22;9572;52.378;13.404;2022-12-07T05:04:50;2.10;99.90
18880;DHT22;9572;52.378;13.404;2022-12-07T05:07:17;2.10;99.90
18880;DHT22;9572;52.378;13.404;2022-12-07T05:09:45;2.10;99.90
18880;DHT22;9572;52.378;13.404;2022-12-07T05:12:12;2.20;99.90
18880;DHT22;9572;52.378;13.404;2022-12-07T05:14:39;2.20;99.90
18880;DHT22;9572;52.378;13.404;2022-12-07T05:17:06;2.20;99.90
18880;DHT22;9572;52.378;13.404;2022-12-07T05:19:33;2.20;99.90
18880;DHT22;9572;52.378;13.404;2022-12-07T05:21:59;2.30;99.90
18880;DHT22;9572;52.378;13.404;2022-12-07T05:24:26;2.20;99.90
18880;DHT22;9572;52.378;13.404;2022-12-07T05:26:55;2.20;99.90
18880;DHT22;9572;52.378;13.404;2022-12-07T05:29:21;2.30;99.90
18880;DHT22;9572;52.378;13.404;2022-12-07T05:31:48;2.30;99.90
18880;DHT22;9572;52.378;13.404;2022-12-07T05:34:15;2.20;99.90
18880;DHT22;9572;52.378;13.404;2022-12-07T05:36:42;2.20;99.90
18880;DHT22;9572;52.378;13.404;2022-12-07T05:39:10;2.20;99.90
18880;DHT22;9572;52.378;13.404;2022-12-07T05:41:37;2.20;99.90
18880;DHT22;9572;52.378;13.404;2022-12-07T05:44:22;2.30;99.90
18880;DHT22;9572;52.378;13.404;2022-12-07T05:46:49;2.40;99.90
18880;DHT22;9572;52.378;13.404;2022-12-07T05:49:16;2.40;99.90
18880;DHT22;9572;52.378;13.404;2022-12-07T05:51:43;2.40;99.90
18880;DHT22;9572;52.378;13.404;2022-12-07T05:54:10;2.50;99.90
18880;DHT22;9572;52.378;13.404;2022-12-07T05:56:37;2.50;99.90
18880;DHT22;9572;52.378;13.404;2022-12-07T05:59:04;2.60;99.90
18880;DHT22;9572;52.378;13.404;2022-12-07T06:01:50;2.50;99.90
18880;DHT22;9572;52.378;13.404;2022-12-07T06:04:17;2.60;99.90
18880;DHT22;9572;52.378;13.404;2022-12-07T06:06:45;2.50;99.90
18880;DHT22;9572;52.378;13.404;2022-12-07T06:09:12;2.60;99.90
18880;DHT22;9572;52.378;13.404;2022-12-07T06:11:39;2.60;99.90
18880;DHT22;9572;52.378;13.404;2022-12-07T06:14:24;2.60;99.90
18880;DHT22;9572;52.378;13.404;2022-12-07T06:16:53;2.60;99.90
18880;DHT22;9572;52.378;13.404;2022-12-07T06:19:19;2.70;99.90
18880;DHT22;9572;52.378;13.404;2022-12-07T06:21:46;2.70;99.90
18880;DHT22;9572;52.378;13.404;2022-12-07T06:24:14;2.70;99.90
18880;DHT22;9572;52.378;13.404;2022-12-07T06:26:42;2.70;99.90
18880;DHT22;9572;52.378;13.404;2022-12-07T06:29:10;2.70;99.90
18880;DHT22;9572;52.378;13.404;2022-12-07T06:31:37;2.80;99.90
18880;DHT22;9572;52.378;13.404;2022-12-07T06:34:08;2.80;99.90
18880;DHT22;9572;52.378;13.404;2022-12-07T06:36:35;2.80;99.90
18880;DHT22;9572;52.378;13.404;2022-12-07T06:39:03;2.90;99.90
18880;DHT22;9572;52.378;13.404;2022-12-07T06:41:30;3.00;99.90
18880;DHT22;9572;52.378;13.404;2022-12-07T06:43:57;2.90;99.90
18880;DHT22;9572;52.378;13.404;2022-12-07T06:46:24;2.90;99.90
18880;DHT22;9572;52.378;13.404;2022-12-07T06:48:52;2.80;99.90
18880;DHT22;9572;52.378;13.404;2022-12-07T06:51:20;2.90;99.90
18880;DHT22;9572;52.378;13.404;2022-12-07T06:53:47;3.00;99.90
18880;DHT22;9572;52.378;13.404;2022-12-07T06:56:14;3.00;99.90
18880;DHT22;9572;52.378;13.404;2022-12-07T06:58:41;3.00;99.90
18880;DHT22;9572;52.378;13.404;2022-12-07T07:01:09;3.00;99.90
18880;DHT22;9572;52.378;13.404;2022-12-07T07:03:37;3.00;99.90
18880;DHT22;9572;52.378;13.404;2022-12-07T07:06:04;3.00;99.90
18880;DHT22;9572;52.378;13.404;2022-12-07T07:08:33;3.00;99.90
18880;DHT22;9572;52.378;13.404;2022-12-07T07:11:00;3.00;99.90
18880;DHT22;9572;52.378;13.404;2022-12-07T07:13:27;3.10;99.90
18880;DHT22;9572;52.378;13.404;2022-12-07T07:15:54;3.20;99.90
18880;DHT22;9572;52.378;13.404;2022-12-07T07:18:21;3.20;99.90
18880;DHT22;9572;52.378;13.404;2022-12-07T07:20:50;3.20;99.90
18880;DHT22;9572;52.378;13.404;2022-12-07T07:23:17;3.20;99.90
18880;DHT22;9572;52.378;13.404;2022-12-07T07:25:45;3.30;99.90
18880;DHT22;9572;52.378;13.404;2022-12-07T07:28:12;3.30;99.90
18880;DHT22;9572;52.378;13.404;2022-12-07T07:30:39;3.40;99.90
18880;DHT22;9572;52.378;13.404;2022-12-07T07:33:06;3.40;99.90
18880;DHT22;9572;52.378;13.404;2022-12-07T07:35:34;3.40;99.90
18880;DHT22;9572;52.378;13.404;2022-12-07T07:38:01;3.50;99.90
18880;DHT22;9572;52.378;13.404;2022-12-07T07:40:29;3.50;99.90
18880;DHT22;9572;52.378;13.404;2022-12-07T07:42:58;3.50;99.90
18880;DHT22;9572;52.378;13.404;2022-12-07T07:45:26;3.60;99.90
18880;DHT22;9572;52.378;13.404;2022-12-07T07:47:53;3.60;99.90
18880;DHT22;9572;52.378;13.404;2022-12-07T07:50:20;3.60;99.90
18880;DHT22;9572;52.378;13.404;2022-12-07T07:52:47;3.60;99.90
18880;DHT22;9572;52.378;13.404;2022-12-07T07:55:14;3.70;99.90
18880;DHT22;9572;52.378;13.404;2022-12-07T07:57:41;3.60;99.90
18880;DHT22;9572;52.378;13.404;2022-12-07T08:00:12;3.60;99.90
18880;DHT22;9572;52.378;13.404;2022-12-07T08:02:40;3.70;99.90
18880;DHT22;9572;52.378;13.404;2022-12-07T08:05:08;3.70;99.90
18880;DHT22;9572;52.378;13.404;2022-12-07T08:07:35;3.60;99.90
18880;DHT22;9572;52.378;13.404;2022-12-07T08:10:03;3.60;99.90
18880;DHT22;9572;52.378;13.404;2022-12-07T08:12:30;3.70;99.90
18880;DHT22;9572;52.378;13.404;2022-12-07T08:14:57;3.70;99.90
18880;DHT22;9572;52.378;13.404;2022-12-07T08:17:25;3.70;99.90
18880;DHT22;9572;52.378;13.404;2022-12-07T08:19:52;3.70;99.90
18880;DHT22;9572;52.378;13.404;2022-12-07T08:22:19;3.80;99.90
18880;DHT22;9572;52.378;13.404;2022-12-07T08:24:46;3.80;99.90
18880;DHT22;9572;52.378;13.404;2022-12-07T08:27:13;3.80;99.90
18880;DHT22;9572;52.378;13.404;2022-12-07T08:29:40;3.90;99.90
18880;DHT22;9572;52.378;13.404;2022-12-07T08:32:07;3.80;99.90
18880;DHT22;9572;52.378;13.404;2022-12-07T08:34:35;3.90;99.90
18880;DHT22;9572;52.378;13.404;2022-12-07T08:37:02;3.90;99.90
18880;DHT22;9572;52.378;13.404;2022-12-07T08:39:29;3.90;99.90
18880;DHT22;9572;52.378;13.404;2022-12-07T08:41:56;3.90;99.90
18880;DHT22;9572;52.378;13.404;2022-12-07T08:44:23;3.90;99.90
18880;DHT22;9572;52.378;13.404;2022-12-07T08:46:53;3.90;99.90
18880;DHT22;9572;52.378;13.404;2022-12-07T08:49:24;4.00;99.90
18880;DHT22;9572;52.378;13.404;2022-12-07T08:51:55;4.00;99.90
18880;DHT22;9572;52.378;13.404;2022-12-07T08:54:22;4.00;99.90
18880;DHT22;9572;52.378;13.404;2022-12-07T08:56:49;4.00;99.90
18880;DHT22;9572;52.378;13.404;2022-12-07T08:59:18;4.00;99.90
18880;DHT22;9572;52.378;13.404;2022-12-07T09:01:45;4.00;99.90
18880;DHT22;9572;52.378;13.404;2022-12-07T09:04:12;4.00;99.90
18880;DHT22;9572;52.378;13.404;2022-12-07T09:06:40;4.00;99.90
18880;DHT22;9572;52.378;13.404;2022-12-07T09:09:09;4.00;99.90
18880;DHT22;9572;52.378;13.404;2022-12-07T09:11:36;3.90;99.90
18880;DHT22;9572;52.378;13.404;2022-12-07T09:14:04;4.00;99.90
18880;DHT22;9572;52.378;13.404;2022-12-07T09:16:31;4.00;99.90
18880;DHT22;9572;52.378;13.404;2022-12-07T09:18:58;3.90;99.90
18880;DHT22;9572;52.378;13.404;2022-12-07T09:21:25;3.90;99.90
18880;DHT22;9572;52.378;13.404;2022-12-07T09:23:52;3.90;99.90
18880;DHT22;9572;52.378;13.404;2022-12-07T09:26:20;3.90;99.90
18880;DHT22;9572;52.378;13.404;2022-12-07T09:28:47;3.90;99.90
18880;DHT22;9572;52.378;13.404;2022-12-07T09:31:14;3.90;99.90
18880;DHT22;9572;52.378;13.404;2022-12-07T09:33:41;3.80;99.90
18880;DHT22;9572;52.378;13.404;2022-12-07T09:36:08;3.80;99.90
18880;DHT22;9572;52.378;13.404;2022-12-07T09:38:35;3.80;99.90
18880;DHT22;9572;52.378;13.404;2022-12-07T09:41:05;3.70;99.90
18880;DHT22;9572;52.378;13.404;2022-12-07T09:43:35;3.80;99.90
18880;DHT22;9572;52.378;13.404;2022-12-07T09:46:03;3.80;99.90
18880;DHT22;9572;52.378;13.404;2022-12-07T09:48:33;3.80;99.90
18880;DHT22;9572;52.378;13.404;2022-12-07T09:51:03;3.80;99.90
18880;DHT22;9572;52.378;13.404;2022-12-07T09:53:38;3.80;99.90
18880;DHT22;9572;52.378;13.404;2022-12-07T09:56:06;3.90;99.90
18880;DHT22;9572;52.378;13.404;2022-12-07T09:58:34;3.90;99.90
18880;DHT22;9572;52.378;13.404;2022-12-07T10:01:11;3.80;99.90
18880;DHT22;9572;52.378;13.404;2022-12-07T10:03:42;3.80;99.90
18880;DHT22;9572;52.378;13.404;2022-12-07T10:06:12;3.80;99.90
18880;DHT22;9572;52.378;13.404;2022-12-07T10:08:40;3.80;99.90
18880;DHT22;9572;52.378;13.404;2022-12-07T10:11:09;3.80;99.90
18880;DHT22;9572;52.378;13.404;2022-12-07T10:13:39;3.80;99.90
18880;DHT22;9572;52.378;13.404;2022-12-07T10:16:09;3.70;99.90
18880;DHT22;9572;52.378;13.404;2022-12-07T10:18:53;3.70;99.90
18880;DHT22;9572;52.378;13.404;2022-12-07T10:21:21;3.60;99.90
18880;DHT22;9572;52.378;13.404;2022-12-07T10:24:00;3.60;99.90
18880;DHT22;9572;52.378;13.404;2022-12-07T10:26:31;3.70;99.90
18880;DHT22;9572;52.378;13.404;2022-12-07T10:29:02;3.70;99.90
18880;DHT22;9572;52.378;13.404;2022-12-07T10:31:40;3.70;99.90
18880;DHT22;9572;52.378;13.404;2022-12-07T10:34:21;3.60;99.90
18880;DHT22;9572;52.378;13.404;2022-12-07T10:36:50;3.70;99.90
18880;DHT22;9572;52.378;13.404;2022-12-07T10:39:19;3.70;99.90
18880;DHT22;9572;52.378;13.404;2022-12-07T10:41:54;3.70;99.90
18880;DHT22;9572;52.378;13.404;2022-12-07T10:44:25;3.70;99.90
18880;DHT22;9572;52.378;13.404;2022-12-07T10:50:17;3.90;99.90
18880;DHT22;9572;52.378;13.404;2022-12-07T10:53:06;3.90;99.90
18880;DHT22;9572;52.378;13.404;2022-12-07T10:55:46;4.00;99.90
18880;DHT22;9572;52.378;13.404;2022-12-07T10:58:28;4.00;99.90
18880;DHT22;9572;52.378;13.404;2022-12-07T11:01:04;4.10;99.90
18880;DHT22;9572;52.378;13.404;2022-12-07T11:03:46;4.10;99.90
18880;DHT22;9572;52.378;13.404;2022-12-07T11:06:23;4.10;99.90
18880;DHT22;9572;52.378;13.404;2022-12-07T11:09:04;4.20;99.90
18880;DHT22;9572;52.378;13.404;2022-12-07T11:11:38;4.20;99.90
18880;DHT22;9572;52.378;13.404;2022-12-07T11:14:15;4.20;99.90
18880;DHT22;9572;52.378;13.404;2022-12-07T11:16:55;4.30;99.90
18880;DHT22;9572;52.378;13.404;2022-12-07T11:19:34;4.30;99.90
18880;DHT22;9572;52.378;13.404;2022-12-07T11:22:11;4.30;99.90
18880;DHT22;9572;52.378;13.404;2022-12-07T11:24:46;4.30;99.90
18880;DHT22;9572;52.378;13.404;2022-12-07T11:27:23;4.30;99.90
18880;DHT22;9572;52.378;13.404;2022-12-07T11:30:17;4.30;99.90
18880;DHT22;9572;52.378;13.404;2022-12-07T11:32:57;4.40;99.90
18880;DHT22;9572;52.378;13.404;2022-12-07T11:35:34;4.30;99.90
18880;DHT22;9572;52.378;13.404;2022-12-07T11:38:10;4.30;99.90
18880;DHT22;9572;52.378;13.404;2022-12-07T11:40:39;4.30;99.90
18880;DHT22;9572;52.378;13.404;2022-12-07T11:43:13;4.40;99.90
18880;DHT22;9572;52.378;13.404;2022-12-07T11:45:43;4.40;99.90
18880;DHT22;9572;52.378;13.404;2022-12-07T11:48:17;4.40;99.90
18880;DHT22;9572;52.378;13.404;2022-12-07T11:50:48;4.40;99.90
18880;DHT22;9572;52.378;13.404;2022-12-07T11:53:19;4.40;99.90
18880;DHT22;9572;52.378;13.404;2022-12-07T11:55:52;4.40;99.90
18880;DHT22;9572;52.378;13.404;2022-12-07T11:58:41;4.40;99.90
18880;DHT22;9572;52.378;13.404;2022-12-07T12:01:15;4.40;99.90
18880;DHT22;9572;52.378;13.404;2022-12-07T12:03:49;4.40;99.90
18880;DHT22;9572;52.378;13.404;2022-12-07T12:06:16;4.40;99.90
18880;DHT22;9572;52.378;13.404;2022-12-07T12:08:46;4.40;99.90
18880;DHT22;9572;52.378;13.404;2022-12-07T12:11:27;4.50;99.90
18880;DHT22;9572;52.378;13.404;2022-12-07T12:14:18;4.40;99.90
18880;DHT22;9572;52.378;13.404;2022-12-07T12:19:59;4.60;99.90
18880;DHT22;9572;52.378;13.404;2022-12-07T12:22:36;4.60;99.90
18880;DHT22;9572;52.378;13.404;2022-12-07T12:25:06;4.60;99.90
18880;DHT22;9572;52.378;13.404;2022-12-07T12:27:36;4.50;99.90
18880;DHT22;9572;52.378;13.404;2022-12-07T12:30:06;4.60;99.90
18880;DHT22;9572;52.378;13.404;2022-12-07T12:32:38;4.60;99.90
18880;DHT22;9572;52.378;13.404;2022-12-07T12:35:29;4.60;99.90
18880;DHT22;9572;52.378;13.404;2022-12-07T12:38:30;4.60;99.90
18880;DHT22;9572;52.378;13.404;2022-12-07T12:40:59;4.70;99.90
18880;DHT22;9572;52.378;13.404;2022-12-07T12:43:50;4.80;99.90
18880;DHT22;9572;52.378;13.404;2022-12-07T12:46:52;4.80;99.90
18880;DHT22;9572;52.378;13.404;2022-12-07T12:49:43;4.70;99.90
18880;DHT22;9572;52.378;13.404;2022-12-07T12:55:22;4.80;99.90
18880;DHT22;9572;52.378;13.404;2022-12-07T13:04:17;5.00;99.90
18880;DHT22;9572;52.378;13.404;2022-12-07T13:06:45;5.10;99.90
18880;DHT22;9572;52.378;13.404;2022-12-07T13:09:20;5.10;99.90
18880;DHT22;9572;52.378;13.404;2022-12-07T13:11:56;5.10;99.90
18880;DHT22;9572;52.378;13.404;2022-12-07T13:14:57;5.10;99.90
18880;DHT22;9572;52.378;13.404;2022-12-07T13:17:56;5.00;99.90
18880;DHT22;9572;52.378;13.404;2022-12-07T13:20:54;4.90;99.90
18880;DHT22;9572;52.378;13.404;2022-12-07T13:23:30;5.00;99.90
18880;DHT22;9572;52.378;13.404;2022-12-07T13:26:06;5.00;99.90
18880;DHT22;9572;52.378;13.404;2022-12-07T13:28:42;5.00;99.90
18880;DHT22;9572;52.378;13.404;2022-12-07T13:31:33;4.90;99.90
18880;DHT22;9572;52.378;13.404;2022-12-07T13:34:04;4.90;99.90
18880;DHT22;9572;52.378;13.404;2022-12-07T13:36:33;4.90;99.90
18880;DHT22;9572;52.378;13.404;2022-12-07T13:39:16;4.90;99.90
18880;DHT22;9572;52.378;13.404;2022-12-07T13:41:48;4.90;99.90
18880;DHT22;9572;52.378;13.404;2022-12-07T13:44:17;4.80;99.90
18880;DHT22;9572;52.378;13.404;2022-12-07T13:46:50;4.80;99.90
18880;DHT22;9572;52.378;13.404;2022-12-07T13:49:22;4.80;99.90
18880;DHT22;9572;52.378;13.404;2022-12-07T13:51:50;4.80;99.90
18880;DHT22;9572;52.378;13.404;2022-12-07T13:54:18;4.70;99.90
18880;DHT22;9572;52.378;13.404;2022-12-07T13:56:49;4.70;99.90
18880;DHT22;9572;52.378;13.404;2022-12-07T13:59:20;4.70;99.90
18880;DHT22;9572;52.378;13.404;2022-12-07T14:01:49;4.70;99.90
18880;DHT22;9572;52.378;13.404;2022-12-07T14:04:31;4.60;99.90
18880;DHT22;9572;52.378;13.404;2022-12-07T14:06:59;4.70;99.90
18880;DHT22;9572;52.378;13.404;2022-12-07T14:09:29;4.60;99.90
18880;DHT22;9572;52.378;13.404;2022-12-07T14:11:57;4.60;99.90
18880;DHT22;9572;52.378;13.404;2022-12-07T14:14:29;4.60;99.90
18880;DHT22;9572;52.378;13.404;2022-12-07T14:17:01;4.60;99.90
18880;DHT22;9572;52.378;13.404;2022-12-07T14:19:52;4.50;99.90
18880;DHT22;9572;52.378;13.404;2022-12-07T14:22:29;4.50;99.90
18880;DHT22;9572;52.378;13.404;2022-12-07T14:25:09;4.50;99.90
18880;DHT22;9572;52.378;13.404;2022-12-07T14:27:38;4.50;99.90
18880;DHT22;9572;52.378;13.404;2022-12-07T14:30:15;4.60;99.90
18880;DHT22;9572;52.378;13.404;2022-12-07T14:32:43;4.50;99.90
18880;DHT22;9572;52.378;13.404;2022-12-07T14:35:16;4.60;99.90
18880;DHT22;9572;52.378;13.404;2022-12-07T14:37:44;4.60;99.90
18880;DHT22;9572;52.378;13.404;2022-12-07T14:40:13;4.50;99.90
18880;DHT22;9572;52.378;13.404;2022-12-07T14:42:40;4.50;99.90
18880;DHT22;9572;52.378;13.404;2022-12-07T14:45:13;4.50;99.90
18880;DHT22;9572;52.378;13.404;2022-12-07T14:47:41;4.40;99.90
18880;DHT22;9572;52.378;13.404;2022-12-07T14:50:10;4.40;99.90
18880;DHT22;9572;52.378;13.404;2022-12-07T14:52:39;4.40;99.90
18880;DHT22;9572;52.378;13.404;2022-12-07T14:55:13;4.30;99.90
18880;DHT22;9572;52.378;13.404;2022-12-07T14:57:40;4.40;99.90
18880;DHT22;9572;52.378;13.404;2022-12-07T15:00:09;4.40;99.90
18880;DHT22;9572;52.378;13.404;2022-12-07T15:02:41;4.30;99.90
18880;DHT22;9572;52.378;13.404;2022-12-07T15:05:08;4.30;99.90
18880;DHT22;9572;52.378;13.404;2022-12-07T15:07:35;4.20;99.90
18880;DHT22;9572;52.378;13.404;2022-12-07T15:10:02;4.20;99.90
18880;DHT22;9572;52.378;13.404;2022-12-07T15:12:29;4.30;99.90
18880;DHT22;9572;52.378;13.404;2022-12-07T15:14:56;4.20;99.90
18880;DHT22;9572;52.378;13.404;2022-12-07T15:17:23;4.10;99.90
18880;DHT22;9572;52.378;13.404;2022-12-07T15:19:51;4.00;99.90
18880;DHT22;9572;52.378;13.404;2022-12-07T15:22:18;3.90;99.90
18880;DHT22;9572;52.378;13.404;2022-12-07T15:24:45;4.00;99.90
18880;DHT22;9572;52.378;13.404;2022-12-07T15:27:12;3.90;99.90
18880;DHT22;9572;52.378;13.404;2022-12-07T15:29:38;3.80;99.90
18880;DHT22;9572;52.378;13.404;2022-12-07T15:32:05;3.90;99.90
18880;DHT22;9572;52.378;13.404;2022-12-07T15:34:32;3.70;99.90
18880;DHT22;9572;52.378;13.404;2022-12-07T15:37:01;3.70;99.90
18880;DHT22;9572;52.378;13.404;2022-12-07T15:39:28;3.60;99.90
18880;DHT22;9572;52.378;13.404;2022-12-07T15:41:54;3.60;99.90
18880;DHT22;9572;52.378;13.404;2022-12-07T15:44:21;3.50;99.90
18880;DHT22;9572;52.378;13.404;2022-12-07T15:47:06;3.50;99.90
18880;DHT22;9572;52.378;13.404;2022-12-07T15:49:33;3.40;99.90
18880;DHT22;9572;52.378;13.404;2022-12-07T15:52:01;3.40;99.90
18880;DHT22;9572;52.378;13.404;2022-12-07T15:54:29;3.30;99.90
18880;DHT22;9572;52.378;13.404;2022-12-07T15:56:57;3.40;99.90
18880;DHT22;9572;52.378;13.404;2022-12-07T15:59:26;3.50;99.90
18880;DHT22;9572;52.378;13.404;2022-12-07T16:01:52;3.40;99.90
18880;DHT22;9572;52.378;13.404;2022-12-07T16:04:19;3.40;99.90
18880;DHT22;9572;52.378;13.404;2022-12-07T16:06:46;3.40;99.90
18880;DHT22;9572;52.378;13.404;2022-12-07T16:09:15;3.30;99.90
18880;DHT22;9572;52.378;13.404;2022-12-07T16:11:41;3.30;99.90
18880;DHT22;9572;52.378;13.404;2022-12-07T16:14:08;3.30;99.90
18880;DHT22;9572;52.378;13.404;2022-12-07T16:16:35;3.30;99.90
18880;DHT22;9572;52.378;13.404;2022-12-07T16:19:02;3.30;99.90
18880;DHT22;9572;52.378;13.404;2022-12-07T16:21:29;3.20;99.90
18880;DHT22;9572;52.378;13.404;2022-12-07T16:23:57;3.30;99.90